AFR028 LFPG-KLAX
Flight info
| Callsign | AFR028 |
|---|---|
| Flight time | N/A |
| Altitude | 36000 |
| Route | ATREX DCT VESAN DCT RATUK DCT SOVAT L613 SANDY DCT OKSAW DCT TEWXI DCT LIPGO DCT INKUR DCT PIKIL/M085F370 NATA ALLRY/N0491F380 N482C MIILS Q907 ADVIK/N0494F400 Q907 SIKBO Q905 HOCKE Q824 FNT J36 DUTYS J16 MCW J148 ONL J114 SNY J84 FROGS J100 SAKES Q70 BAWER Q96 PURSE BOGET2 |
| Aircraft | A359/H-SDE2E3GHIJ3J4J5LM1ORWXY/LB1D1 |
Departure
| Time | 2026-05-08 13:43 |
|---|---|
| Airport | Charles de Gaulle International Airport (LFPG) |
Arrival
| Time | N/A |
|---|---|
| Airport | Los Angeles International Airport (KLAX) |
| Time | Latitude | Longitude | Altitude | Speed | Heading |
|---|---|---|---|---|---|
| 2026-05-08 13:05 | 49.00626 | 2.58573 | 368 ft | 0 kts | 266° |
| 2026-05-08 13:25 | 49.00626 | 2.58580 | 360 ft | 1 kts | 266° |
| 2026-05-08 13:26 | 49.00627 | 2.58588 | 368 ft | 0 kts | 266° |
| 2026-05-08 13:27 | 49.00628 | 2.58607 | 362 ft | 2 kts | 260° |
| 2026-05-08 13:27 | 49.00631 | 2.58631 | 363 ft | 2 kts | 263° |
| 2026-05-08 13:27 | 49.00634 | 2.58656 | 365 ft | 2 kts | 240° |
| 2026-05-08 13:27 | 49.00643 | 2.58676 | 366 ft | 2 kts | 224° |
| 2026-05-08 13:28 | 49.00656 | 2.58691 | 367 ft | 2 kts | 208° |
| 2026-05-08 13:28 | 49.00669 | 2.58700 | 362 ft | 1 kts | 186° |
| 2026-05-08 13:28 | 49.00672 | 2.58701 | 362 ft | 0 kts | 179° |
| 2026-05-08 13:32 | 49.00655 | 2.58703 | 365 ft | 5 kts | 175° |
| 2026-05-08 13:33 | 49.00597 | 2.58712 | 364 ft | 11 kts | 173° |
| 2026-05-08 13:33 | 49.00501 | 2.58720 | 365 ft | 16 kts | 176° |
| 2026-05-08 13:33 | 49.00369 | 2.58733 | 365 ft | 22 kts | 175° |
| 2026-05-08 13:33 | 49.00212 | 2.58755 | 366 ft | 22 kts | 180° |
| 2026-05-08 13:34 | 49.00176 | 2.58757 | 369 ft | 2 kts | 173° |
| 2026-05-08 13:34 | 49.00143 | 2.58763 | 366 ft | 8 kts | 172° |
| 2026-05-08 13:34 | 49.00069 | 2.58757 | 364 ft | 13 kts | 204° |
| 2026-05-08 13:34 | 49.00028 | 2.58616 | 366 ft | 18 kts | 264° |
| 2026-05-08 13:35 | 49.00014 | 2.58404 | 366 ft | 22 kts | 266° |
| 2026-05-08 13:35 | 49.00004 | 2.58149 | 362 ft | 26 kts | 267° |
| 2026-05-08 13:35 | 48.99987 | 2.57864 | 366 ft | 29 kts | 265° |
| 2026-05-08 13:35 | 48.99974 | 2.57542 | 367 ft | 32 kts | 265° |
| 2026-05-08 13:36 | 48.99953 | 2.57200 | 364 ft | 24 kts | 265° |
| 2026-05-08 13:36 | 48.99951 | 2.57166 | 365 ft | 2 kts | 265° |
| 2026-05-08 13:36 | 48.99949 | 2.57116 | 366 ft | 8 kts | 266° |
| 2026-05-08 13:36 | 48.99942 | 2.56995 | 366 ft | 15 kts | 265° |
| 2026-05-08 13:37 | 48.99932 | 2.56810 | 364 ft | 20 kts | 265° |
| 2026-05-08 13:37 | 48.99919 | 2.56575 | 368 ft | 24 kts | 265° |
| 2026-05-08 13:37 | 48.99907 | 2.56354 | 361 ft | 16 kts | 265° |
| 2026-05-08 13:37 | 48.99896 | 2.56156 | 369 ft | 21 kts | 267° |
| 2026-05-08 13:38 | 48.99881 | 2.56047 | 366 ft | 9 kts | 237° |
| 2026-05-08 13:38 | 48.99826 | 2.55998 | 367 ft | 11 kts | 218° |
| 2026-05-08 13:38 | 48.99788 | 2.55915 | 369 ft | 7 kts | 253° |
| 2026-05-08 13:38 | 48.99757 | 2.55825 | 366 ft | 12 kts | 228° |
| 2026-05-08 13:39 | 48.99709 | 2.55810 | 366 ft | 0 kts | 172° |
| 2026-05-08 13:39 | 48.99702 | 2.55812 | 367 ft | 4 kts | 172° |
| 2026-05-08 13:39 | 48.99655 | 2.55822 | 364 ft | 10 kts | 175° |
| 2026-05-08 13:39 | 48.99600 | 2.55859 | 367 ft | 5 kts | 112° |
| 2026-05-08 13:40 | 48.99603 | 2.55896 | 365 ft | 0 kts | 84° |
| 2026-05-08 13:41 | 48.99608 | 2.55971 | 362 ft | 28 kts | 84° |
| 2026-05-08 13:42 | 48.99640 | 2.56556 | 369 ft | 83 kts | 85° |
| 2026-05-08 13:42 | 48.99699 | 2.57668 | 366 ft | 129 kts | 86° |
| 2026-05-08 13:42 | 48.99780 | 2.59221 | 363 ft | 166 kts | 86° |
| 2026-05-08 13:42 | 48.99876 | 2.60979 | 967 ft | 158 kts | 86° |
| 2026-05-08 13:43 | 48.99964 | 2.62662 | 1380 ft | 169 kts | 85° |
| 2026-05-08 13:43 | 49.00063 | 2.64514 | 1692 ft | 183 kts | 85° |
| 2026-05-08 13:43 | 49.00186 | 2.66597 | 1848 ft | 206 kts | 84° |
| 2026-05-08 13:43 | 49.00334 | 2.68879 | 2022 ft | 227 kts | 84° |
| 2026-05-08 13:44 | 49.00466 | 2.71354 | 2331 ft | 242 kts | 86° |
| 2026-05-08 13:44 | 49.00587 | 2.73908 | 2816 ft | 247 kts | 85° |
| 2026-05-08 13:44 | 49.00940 | 2.76475 | 3392 ft | 251 kts | 68° |
| 2026-05-08 13:44 | 49.01953 | 2.78637 | 3855 ft | 257 kts | 40° |
| 2026-05-08 13:45 | 49.03554 | 2.79879 | 4372 ft | 262 kts | 13° |
| 2026-05-08 13:45 | 49.05368 | 2.79880 | 4934 ft | 265 kts | 347° |
| 2026-05-08 13:45 | 49.07122 | 2.78961 | 5510 ft | 268 kts | 339° |
| 2026-05-08 13:45 | 49.08860 | 2.77911 | 6088 ft | 270 kts | 339° |
| 2026-05-08 13:46 | 49.10616 | 2.76870 | 6671 ft | 272 kts | 339° |
| 2026-05-08 13:46 | 49.12389 | 2.75829 | 7189 ft | 275 kts | 339° |
| 2026-05-08 13:46 | 49.14191 | 2.74776 | 7724 ft | 279 kts | 338° |
| 2026-05-08 13:46 | 49.16005 | 2.73718 | 8265 ft | 281 kts | 338° |
| 2026-05-08 13:47 | 49.17845 | 2.72646 | 8835 ft | 284 kts | 338° |
| 2026-05-08 13:47 | 49.19693 | 2.71568 | 9414 ft | 286 kts | 338° |
| 2026-05-08 13:47 | 49.21566 | 2.70475 | 9982 ft | 290 kts | 338° |
| 2026-05-08 13:47 | 49.23440 | 2.69381 | 10347 ft | 298 kts | 337° |
| 2026-05-08 13:48 | 49.25422 | 2.68223 | 10607 ft | 310 kts | 338° |
| 2026-05-08 13:48 | 49.27404 | 2.67065 | 10862 ft | 322 kts | 338° |
| 2026-05-08 13:48 | 49.29541 | 2.65816 | 11157 ft | 333 kts | 338° |
| 2026-05-08 13:48 | 49.31787 | 2.64503 | 11455 ft | 344 kts | 338° |
| 2026-05-08 13:49 | 49.34056 | 2.63175 | 11730 ft | 354 kts | 338° |
| 2026-05-08 13:49 | 49.36388 | 2.61808 | 11988 ft | 364 kts | 338° |
| 2026-05-08 13:49 | 49.38790 | 2.60399 | 12239 ft | 374 kts | 338° |
| 2026-05-08 13:49 | 49.41249 | 2.58955 | 12475 ft | 383 kts | 338° |
| 2026-05-08 13:50 | 49.43716 | 2.57506 | 12824 ft | 388 kts | 338° |
| 2026-05-08 13:50 | 49.46279 | 2.55998 | 13222 ft | 391 kts | 338° |
| 2026-05-08 13:50 | 49.48833 | 2.54493 | 13641 ft | 395 kts | 338° |
| 2026-05-08 13:50 | 49.51405 | 2.52975 | 14016 ft | 398 kts | 338° |
| 2026-05-08 13:51 | 49.54002 | 2.51441 | 14367 ft | 401 kts | 338° |
| 2026-05-08 13:51 | 49.56619 | 2.49895 | 14778 ft | 403 kts | 338° |
| 2026-05-08 13:51 | 49.59198 | 2.48368 | 15193 ft | 404 kts | 338° |
| 2026-05-08 13:51 | 49.61826 | 2.46812 | 15596 ft | 406 kts | 338° |
| 2026-05-08 13:52 | 49.64467 | 2.45244 | 16001 ft | 408 kts | 338° |
| 2026-05-08 13:52 | 49.67129 | 2.43662 | 16387 ft | 410 kts | 338° |
| 2026-05-08 13:52 | 49.69787 | 2.42081 | 16783 ft | 412 kts | 338° |
| 2026-05-08 13:52 | 49.72471 | 2.40483 | 17158 ft | 415 kts | 338° |
| 2026-05-08 13:53 | 49.75165 | 2.38876 | 17551 ft | 416 kts | 338° |
| 2026-05-08 13:53 | 49.77873 | 2.37260 | 17934 ft | 418 kts | 338° |
| 2026-05-08 13:53 | 49.80603 | 2.35641 | 18305 ft | 421 kts | 338° |
| 2026-05-08 13:53 | 49.83357 | 2.34044 | 18634 ft | 423 kts | 338° |
| 2026-05-08 13:54 | 49.86121 | 2.32456 | 18951 ft | 425 kts | 338° |
| 2026-05-08 13:54 | 49.88901 | 2.30862 | 19258 ft | 427 kts | 338° |
| 2026-05-08 13:54 | 49.91695 | 2.29256 | 19593 ft | 429 kts | 338° |
| 2026-05-08 13:54 | 49.94366 | 2.27716 | 19916 ft | 431 kts | 338° |
| 2026-05-08 13:55 | 49.97186 | 2.26083 | 20284 ft | 431 kts | 338° |
| 2026-05-08 13:55 | 50.00000 | 2.24450 | 20639 ft | 433 kts | 338° |
| 2026-05-08 13:55 | 50.05678 | 2.21145 | 21281 ft | 437 kts | 338° |
| 2026-05-08 13:56 | 50.08527 | 2.19484 | 21614 ft | 439 kts | 338° |
| 2026-05-08 13:56 | 50.11394 | 2.17809 | 21948 ft | 441 kts | 338° |
| 2026-05-08 13:56 | 50.14212 | 2.16162 | 22268 ft | 443 kts | 338° |
| 2026-05-08 13:56 | 50.17092 | 2.14477 | 22596 ft | 444 kts | 338° |
| 2026-05-08 13:57 | 50.19942 | 2.12806 | 22886 ft | 447 kts | 338° |
| 2026-05-08 13:57 | 50.22835 | 2.11109 | 23194 ft | 449 kts | 338° |
| 2026-05-08 13:57 | 50.25764 | 2.09387 | 23539 ft | 451 kts | 338° |
| 2026-05-08 13:57 | 50.28702 | 2.07658 | 23815 ft | 453 kts | 338° |
| 2026-05-08 13:58 | 50.31628 | 2.05934 | 24139 ft | 453 kts | 338° |
| 2026-05-08 13:58 | 50.34571 | 2.04130 | 24488 ft | 453 kts | 335° |
| 2026-05-08 13:58 | 50.37287 | 2.01876 | 24814 ft | 452 kts | 327° |
| 2026-05-08 13:58 | 50.39824 | 1.98976 | 25141 ft | 451 kts | 321° |
| 2026-05-08 13:59 | 50.42203 | 1.95931 | 25437 ft | 452 kts | 319° |
| 2026-05-08 13:59 | 50.44602 | 1.92715 | 25726 ft | 453 kts | 319° |
| 2026-05-08 13:59 | 50.46976 | 1.89458 | 26037 ft | 454 kts | 318° |
| 2026-05-08 13:59 | 50.49313 | 1.86226 | 26380 ft | 454 kts | 318° |
| 2026-05-08 14:00 | 50.51680 | 1.82955 | 26819 ft | 451 kts | 319° |
| 2026-05-08 14:00 | 50.54020 | 1.79725 | 27377 ft | 447 kts | 319° |
| 2026-05-08 14:00 | 50.56310 | 1.76572 | 27661 ft | 448 kts | 320° |
| 2026-05-08 14:00 | 50.58578 | 1.73453 | 27918 ft | 450 kts | 320° |
| 2026-05-08 14:01 | 50.60873 | 1.70298 | 28218 ft | 450 kts | 320° |
| 2026-05-08 14:01 | 50.63237 | 1.67043 | 28514 ft | 451 kts | 320° |
| 2026-05-08 14:01 | 50.65583 | 1.63810 | 28697 ft | 454 kts | 320° |
| 2026-05-08 14:01 | 50.67990 | 1.60496 | 28918 ft | 457 kts | 320° |
| 2026-05-08 14:02 | 50.70382 | 1.57190 | 29212 ft | 457 kts | 320° |
| 2026-05-08 14:02 | 50.72765 | 1.53885 | 29497 ft | 458 kts | 320° |
| 2026-05-08 14:02 | 50.75160 | 1.50557 | 29813 ft | 457 kts | 320° |
| 2026-05-08 14:02 | 50.77540 | 1.47244 | 30232 ft | 454 kts | 320° |
| 2026-05-08 14:03 | 50.79895 | 1.43970 | 30570 ft | 452 kts | 320° |
| 2026-05-08 14:03 | 50.82248 | 1.40696 | 30848 ft | 451 kts | 320° |
| 2026-05-08 14:03 | 50.84605 | 1.37406 | 31102 ft | 451 kts | 319° |
| 2026-05-08 14:03 | 50.86949 | 1.34129 | 31397 ft | 449 kts | 319° |
| 2026-05-08 14:04 | 50.88497 | 1.31962 | 31583 ft | 449 kts | 319° |
| 2026-05-08 14:04 | 50.91627 | 1.27580 | 31950 ft | 448 kts | 319° |
| 2026-05-08 14:04 | 50.93910 | 1.24380 | 32246 ft | 446 kts | 319° |
| 2026-05-08 14:04 | 50.95453 | 1.22215 | 32443 ft | 445 kts | 319° |
| 2026-05-08 14:05 | 50.98524 | 1.17898 | 32822 ft | 444 kts | 319° |
| 2026-05-08 14:05 | 51.00077 | 1.15712 | 33013 ft | 443 kts | 318° |
| 2026-05-08 14:05 | 51.03084 | 1.11378 | 33364 ft | 441 kts | 315° |
| 2026-05-08 14:05 | 51.04491 | 1.08973 | 33528 ft | 441 kts | 311° |
| 2026-05-08 14:06 | 51.06329 | 1.05063 | 33800 ft | 441 kts | 303° |
| 2026-05-08 14:06 | 51.07806 | 1.00805 | 34066 ft | 441 kts | 296° |
| 2026-05-08 14:06 | 51.09019 | 0.96378 | 34263 ft | 441 kts | 294° |
| 2026-05-08 14:06 | 51.10173 | 0.91842 | 34381 ft | 443 kts | 292° |
| 2026-05-08 14:07 | 51.11292 | 0.87262 | 34511 ft | 444 kts | 292° |
| 2026-05-08 14:07 | 51.13165 | 0.79475 | 34765 ft | 445 kts | 292° |
| 2026-05-08 14:08 | 51.15078 | 0.71535 | 35012 ft | 446 kts | 292° |
| 2026-05-08 14:08 | 51.16182 | 0.66977 | 35139 ft | 446 kts | 292° |
| 2026-05-08 14:08 | 51.17297 | 0.62376 | 35273 ft | 447 kts | 292° |
| 2026-05-08 14:08 | 51.18420 | 0.57744 | 35407 ft | 447 kts | 292° |
| 2026-05-08 14:09 | 51.19540 | 0.53116 | 35523 ft | 448 kts | 291° |
| 2026-05-08 14:09 | 51.20662 | 0.48474 | 35660 ft | 448 kts | 291° |
| 2026-05-08 14:09 | 51.21776 | 0.43851 | 35824 ft | 447 kts | 291° |
| 2026-05-08 14:09 | 51.22892 | 0.39211 | 36027 ft | 447 kts | 291° |
| 2026-05-08 14:10 | 51.24002 | 0.34584 | 36049 ft | 449 kts | 291° |
| 2026-05-08 14:10 | 51.26244 | 0.25207 | 36056 ft | 455 kts | 291° |
| 2026-05-08 14:11 | 51.28491 | 0.15768 | 36066 ft | 454 kts | 291° |
| 2026-05-08 14:11 | 51.30730 | 0.06321 | 36074 ft | 454 kts | 291° |
| 2026-05-08 14:12 | 51.32953 | -0.03097 | 36081 ft | 453 kts | 290° |
| 2026-05-08 14:12 | 51.35170 | -0.12535 | 36080 ft | 452 kts | 290° |
| 2026-05-08 14:13 | 51.37367 | -0.21930 | 36076 ft | 452 kts | 290° |
| 2026-05-08 14:13 | 51.39567 | -0.31374 | 36074 ft | 452 kts | 290° |
| 2026-05-08 14:14 | 51.41737 | -0.40736 | 36067 ft | 452 kts | 290° |
| 2026-05-08 14:14 | 51.43913 | -0.50160 | 36072 ft | 452 kts | 290° |
| 2026-05-08 14:15 | 51.45995 | -0.59216 | 36076 ft | 452 kts | 290° |
| 2026-05-08 14:15 | 51.48162 | -0.68687 | 36077 ft | 452 kts | 290° |
| 2026-05-08 14:16 | 51.50305 | -0.78092 | 36072 ft | 451 kts | 290° |
| 2026-05-08 14:16 | 51.52440 | -0.87503 | 36072 ft | 452 kts | 289° |
| 2026-05-08 14:17 | 51.54558 | -0.96884 | 36076 ft | 452 kts | 289° |
| 2026-05-08 14:17 | 51.56695 | -1.06384 | 36069 ft | 450 kts | 289° |
| 2026-05-08 14:18 | 51.58811 | -1.15843 | 36077 ft | 450 kts | 289° |
| 2026-05-08 14:18 | 51.60922 | -1.25320 | 36072 ft | 450 kts | 289° |
| 2026-05-08 14:19 | 51.63039 | -1.34871 | 36072 ft | 450 kts | 289° |
| 2026-05-08 14:19 | 51.65119 | -1.44291 | 36076 ft | 450 kts | 289° |
| 2026-05-08 14:20 | 51.67209 | -1.53801 | 36075 ft | 450 kts | 288° |
| 2026-05-08 14:20 | 51.69289 | -1.63309 | 36077 ft | 450 kts | 288° |
| 2026-05-08 14:21 | 51.71715 | -1.72614 | 36063 ft | 451 kts | 294° |
| 2026-05-08 14:21 | 51.74484 | -1.81694 | 36060 ft | 451 kts | 295° |
| 2026-05-08 14:22 | 51.77297 | -1.90750 | 36056 ft | 451 kts | 295° |
| 2026-05-08 14:22 | 51.80105 | -1.99822 | 36047 ft | 451 kts | 294° |
| 2026-05-08 14:23 | 51.83255 | -2.08612 | 36044 ft | 452 kts | 299° |
| 2026-05-08 14:23 | 51.86572 | -2.17269 | 36040 ft | 453 kts | 299° |
| 2026-05-08 14:24 | 51.89898 | -2.25910 | 36053 ft | 453 kts | 299° |
| 2026-05-08 14:24 | 51.93222 | -2.34584 | 36050 ft | 453 kts | 299° |
| 2026-05-08 14:25 | 51.96530 | -2.43262 | 36052 ft | 453 kts | 299° |
| 2026-05-08 14:25 | 51.99831 | -2.51954 | 36046 ft | 453 kts | 298° |
| 2026-05-08 14:26 | 52.03124 | -2.60655 | 36049 ft | 453 kts | 298° |
| 2026-05-08 14:26 | 52.06416 | -2.69380 | 36049 ft | 452 kts | 298° |
| 2026-05-08 14:27 | 52.09688 | -2.78085 | 36047 ft | 452 kts | 298° |
| 2026-05-08 14:27 | 52.12942 | -2.86776 | 36049 ft | 452 kts | 298° |
| 2026-05-08 14:28 | 52.16206 | -2.95516 | 36047 ft | 452 kts | 298° |
| 2026-05-08 14:28 | 52.19466 | -3.04276 | 36045 ft | 453 kts | 298° |
| 2026-05-08 14:29 | 52.22723 | -3.13067 | 36042 ft | 453 kts | 298° |
| 2026-05-08 14:29 | 52.25976 | -3.21869 | 36043 ft | 452 kts | 297° |
| 2026-05-08 14:30 | 52.29217 | -3.30669 | 36046 ft | 452 kts | 297° |
| 2026-05-08 14:30 | 52.32449 | -3.39477 | 36043 ft | 452 kts | 297° |
| 2026-05-08 14:31 | 52.35680 | -3.48317 | 36047 ft | 452 kts | 297° |
| 2026-05-08 14:31 | 52.38899 | -3.57156 | 36045 ft | 453 kts | 297° |
| 2026-05-08 14:32 | 52.43733 | -3.70477 | 36048 ft | 453 kts | 297° |
| 2026-05-08 14:32 | 52.46939 | -3.79352 | 36062 ft | 453 kts | 297° |
| 2026-05-08 14:33 | 52.50143 | -3.88256 | 36044 ft | 453 kts | 296° |
| 2026-05-08 14:33 | 52.53339 | -3.97170 | 36045 ft | 452 kts | 296° |
| 2026-05-08 14:34 | 52.56510 | -4.06046 | 36049 ft | 454 kts | 296° |
| 2026-05-08 14:34 | 52.59695 | -4.14990 | 36049 ft | 454 kts | 296° |
| 2026-05-08 14:35 | 52.62884 | -4.23978 | 36053 ft | 454 kts | 296° |
| 2026-05-08 14:35 | 52.66063 | -4.32971 | 36054 ft | 454 kts | 296° |
| 2026-05-08 14:36 | 52.69236 | -4.41978 | 36071 ft | 454 kts | 296° |
| 2026-05-08 14:36 | 52.72392 | -4.50970 | 36059 ft | 454 kts | 296° |
| 2026-05-08 14:37 | 52.75557 | -4.60020 | 36059 ft | 455 kts | 295° |
| 2026-05-08 14:37 | 52.78708 | -4.69063 | 36072 ft | 455 kts | 295° |
| 2026-05-08 14:38 | 52.81858 | -4.78135 | 36069 ft | 455 kts | 295° |
| 2026-05-08 14:38 | 52.85006 | -4.87235 | 36078 ft | 455 kts | 295° |
| 2026-05-08 14:39 | 52.88134 | -4.96312 | 36080 ft | 455 kts | 295° |
| 2026-05-08 14:39 | 52.91265 | -5.05429 | 36084 ft | 455 kts | 295° |
| 2026-05-08 14:40 | 52.94375 | -5.14518 | 36080 ft | 456 kts | 295° |
| 2026-05-08 14:40 | 52.97498 | -5.23681 | 36080 ft | 456 kts | 295° |
| 2026-05-08 14:41 | 53.00616 | -5.32862 | 36080 ft | 456 kts | 295° |
| 2026-05-08 14:41 | 53.03723 | -5.42041 | 36084 ft | 456 kts | 295° |
| 2026-05-08 14:42 | 53.06823 | -5.51236 | 36081 ft | 456 kts | 295° |
| 2026-05-08 14:42 | 53.09691 | -5.60638 | 36080 ft | 454 kts | 291° |
| 2026-05-08 14:43 | 53.12363 | -5.70138 | 36098 ft | 454 kts | 290° |
| 2026-05-08 14:43 | 53.15042 | -5.79568 | 36079 ft | 453 kts | 291° |
| 2026-05-08 14:44 | 53.17770 | -5.89038 | 36083 ft | 453 kts | 291° |
| 2026-05-08 14:44 | 53.20507 | -5.98521 | 36088 ft | 453 kts | 291° |
| 2026-05-08 14:45 | 53.23233 | -6.08004 | 36091 ft | 453 kts | 291° |
| 2026-05-08 14:45 | 53.25955 | -6.17519 | 36097 ft | 453 kts | 290° |
| 2026-05-08 14:46 | 53.28667 | -6.27039 | 36075 ft | 454 kts | 290° |
| 2026-05-08 14:46 | 53.31372 | -6.36576 | 36075 ft | 454 kts | 290° |
| 2026-05-08 14:47 | 53.34072 | -6.46135 | 36076 ft | 454 kts | 290° |
| 2026-05-08 14:47 | 53.36764 | -6.55702 | 36075 ft | 454 kts | 290° |
| 2026-05-08 14:48 | 53.38997 | -6.63669 | 36075 ft | 454 kts | 290° |
| 2026-05-08 14:48 | 53.42124 | -6.74870 | 36078 ft | 455 kts | 290° |
| 2026-05-08 14:49 | 53.44347 | -6.82870 | 36079 ft | 455 kts | 290° |
| 2026-05-08 14:49 | 53.47022 | -6.92526 | 36078 ft | 456 kts | 290° |
| 2026-05-08 14:50 | 53.49686 | -7.02185 | 36059 ft | 456 kts | 290° |
| 2026-05-08 14:50 | 53.52334 | -7.11827 | 36077 ft | 455 kts | 290° |
| 2026-05-08 14:51 | 53.54977 | -7.21491 | 36074 ft | 455 kts | 289° |
| 2026-05-08 14:51 | 53.57610 | -7.31156 | 36077 ft | 455 kts | 289° |
| 2026-05-08 14:52 | 53.62056 | -7.45377 | 36079 ft | 461 kts | 295° |
| 2026-05-08 14:53 | 53.65414 | -7.54604 | 36077 ft | 461 kts | 296° |
| 2026-05-08 14:53 | 53.68792 | -7.63810 | 36078 ft | 461 kts | 296° |
| 2026-05-08 14:54 | 53.72138 | -7.72983 | 36085 ft | 461 kts | 296° |
| 2026-05-08 14:54 | 53.75485 | -7.82220 | 36095 ft | 461 kts | 295° |
| 2026-05-08 14:55 | 53.78837 | -7.91509 | 36090 ft | 460 kts | 295° |
| 2026-05-08 14:55 | 53.82163 | -8.00765 | 36085 ft | 460 kts | 295° |
| 2026-05-08 14:56 | 53.85463 | -8.09983 | 36089 ft | 460 kts | 295° |
| 2026-05-08 14:56 | 53.88797 | -8.19329 | 36098 ft | 461 kts | 295° |
| 2026-05-08 14:57 | 53.92079 | -8.28565 | 36097 ft | 461 kts | 295° |
| 2026-05-08 14:57 | 53.95383 | -8.37896 | 36092 ft | 460 kts | 295° |
| 2026-05-08 14:58 | 53.98674 | -8.47223 | 36104 ft | 460 kts | 295° |
| 2026-05-08 14:58 | 54.01957 | -8.56567 | 36103 ft | 460 kts | 294° |
| 2026-05-08 14:59 | 54.05217 | -8.65879 | 36105 ft | 460 kts | 294° |
| 2026-05-08 14:59 | 54.10119 | -8.79948 | 36106 ft | 460 kts | 294° |
| 2026-05-08 15:00 | 54.13378 | -8.89346 | 36113 ft | 460 kts | 294° |
| 2026-05-08 15:00 | 54.16632 | -8.98766 | 36157 ft | 460 kts | 294° |
| 2026-05-08 15:01 | 54.19868 | -9.08168 | 36127 ft | 460 kts | 294° |
| 2026-05-08 15:01 | 54.23108 | -9.17622 | 36139 ft | 460 kts | 294° |
| 2026-05-08 15:02 | 54.26331 | -9.27059 | 36140 ft | 460 kts | 294° |
| 2026-05-08 15:02 | 54.29556 | -9.36539 | 36145 ft | 460 kts | 294° |
| 2026-05-08 15:03 | 54.32766 | -9.46011 | 36151 ft | 460 kts | 294° |
| 2026-05-08 15:03 | 54.35975 | -9.55517 | 36151 ft | 460 kts | 294° |
| 2026-05-08 15:04 | 54.39174 | -9.65032 | 36177 ft | 460 kts | 294° |
| 2026-05-08 15:04 | 54.42350 | -9.74513 | 36162 ft | 462 kts | 293° |
| 2026-05-08 15:05 | 54.45566 | -9.84149 | 36168 ft | 462 kts | 293° |
| 2026-05-08 15:05 | 54.48753 | -9.93735 | 36176 ft | 462 kts | 293° |
| 2026-05-08 15:06 | 54.51912 | -10.03279 | 36175 ft | 462 kts | 293° |
| 2026-05-08 15:06 | 54.55083 | -10.12897 | 36178 ft | 462 kts | 293° |
| 2026-05-08 15:07 | 54.58243 | -10.22521 | 36210 ft | 462 kts | 293° |
| 2026-05-08 15:07 | 54.61397 | -10.32171 | 36186 ft | 463 kts | 293° |
| 2026-05-08 15:08 | 54.64019 | -10.40222 | 36184 ft | 464 kts | 293° |
| 2026-05-08 15:08 | 54.67705 | -10.51578 | 36184 ft | 464 kts | 293° |
| 2026-05-08 15:09 | 54.70839 | -10.61272 | 36192 ft | 464 kts | 293° |
| 2026-05-08 15:09 | 54.73977 | -10.71021 | 36192 ft | 463 kts | 292° |
| 2026-05-08 15:10 | 54.77109 | -10.80790 | 36192 ft | 463 kts | 292° |
| 2026-05-08 15:10 | 54.80224 | -10.90545 | 36206 ft | 463 kts | 293° |
| 2026-05-08 15:11 | 54.83328 | -11.00310 | 36197 ft | 464 kts | 293° |
| 2026-05-08 15:11 | 54.86420 | -11.10072 | 36199 ft | 464 kts | 292° |
| 2026-05-08 15:12 | 54.89531 | -11.19931 | 36201 ft | 464 kts | 292° |
| 2026-05-08 15:12 | 54.92606 | -11.29720 | 36198 ft | 464 kts | 292° |
| 2026-05-08 15:13 | 54.95689 | -11.39575 | 36201 ft | 464 kts | 292° |
| 2026-05-08 15:13 | 54.98764 | -11.49447 | 36228 ft | 464 kts | 293° |
| 2026-05-08 15:14 | 55.01835 | -11.59340 | 36203 ft | 463 kts | 292° |
| 2026-05-08 15:14 | 55.04890 | -11.69229 | 36207 ft | 463 kts | 292° |
| 2026-05-08 15:15 | 55.07935 | -11.79127 | 36209 ft | 463 kts | 292° |
| 2026-05-08 15:15 | 55.10973 | -11.89041 | 36216 ft | 463 kts | 292° |
| 2026-05-08 15:16 | 55.14004 | -11.98974 | 36217 ft | 463 kts | 292° |
| 2026-05-08 15:16 | 55.17025 | -12.08918 | 36216 ft | 463 kts | 292° |
| 2026-05-08 15:17 | 55.20038 | -12.18877 | 36240 ft | 463 kts | 293° |
| 2026-05-08 15:17 | 55.23053 | -12.28887 | 36226 ft | 465 kts | 293° |
| 2026-05-08 15:18 | 55.26046 | -12.38861 | 36224 ft | 466 kts | 292° |
| 2026-05-08 15:18 | 55.29054 | -12.48928 | 36228 ft | 466 kts | 292° |
| 2026-05-08 15:19 | 55.32052 | -12.59004 | 36227 ft | 466 kts | 292° |
| 2026-05-08 15:19 | 55.35046 | -12.69109 | 36232 ft | 466 kts | 292° |
| 2026-05-08 15:20 | 55.38026 | -12.79211 | 36231 ft | 466 kts | 292° |
| 2026-05-08 15:20 | 55.40998 | -12.89335 | 36237 ft | 466 kts | 292° |
| 2026-05-08 15:21 | 55.43969 | -12.99496 | 36242 ft | 468 kts | 292° |
| 2026-05-08 15:21 | 55.46945 | -13.09715 | 36240 ft | 468 kts | 292° |
| 2026-05-08 15:22 | 55.49907 | -13.19933 | 36241 ft | 468 kts | 292° |
| 2026-05-08 15:22 | 55.52859 | -13.30159 | 36242 ft | 468 kts | 292° |
| 2026-05-08 15:23 | 55.55799 | -13.40392 | 36240 ft | 468 kts | 292° |
| 2026-05-08 15:23 | 55.58736 | -13.50662 | 36246 ft | 468 kts | 292° |
| 2026-05-08 15:24 | 55.61673 | -13.60976 | 36250 ft | 471 kts | 293° |
| 2026-05-08 15:24 | 55.64611 | -13.71335 | 36250 ft | 471 kts | 293° |
| 2026-05-08 15:25 | 55.67522 | -13.81646 | 36260 ft | 471 kts | 293° |
| 2026-05-08 15:25 | 55.70463 | -13.92109 | 36257 ft | 471 kts | 293° |